sensor_id;sensor_type;location;lat;lon;timestamp;P1;durP1;ratioP1;P2;durP2;ratioP2
4986;SDS011;12674;51.500;7.552;2023-06-14T00:01:38;12.73;;;5.78;;
4986;SDS011;12674;51.500;7.552;2023-06-14T00:03:42;10.63;;;5.72;;
4986;SDS011;12674;51.500;7.552;2023-06-14T00:05:46;14.02;;;5.80;;
4986;SDS011;12674;51.500;7.552;2023-06-14T00:07:49;13.00;;;6.38;;
4986;SDS011;12674;51.500;7.552;2023-06-14T00:09:54;15.32;;;6.00;;
4986;SDS011;12674;51.500;7.552;2023-06-14T00:11:57;9.48;;;5.75;;
4986;SDS011;12674;51.500;7.552;2023-06-14T00:14:00;8.10;;;5.68;;
4986;SDS011;12674;51.500;7.552;2023-06-14T00:16:05;14.48;;;5.50;;
4986;SDS011;12674;51.500;7.552;2023-06-14T00:18:08;10.18;;;5.70;;
4986;SDS011;12674;51.500;7.552;2023-06-14T00:20:14;11.98;;;5.82;;
4986;SDS011;12674;51.500;7.552;2023-06-14T00:22:17;10.45;;;5.88;;
4986;SDS011;12674;51.500;7.552;2023-06-14T00:24:21;9.32;;;6.25;;
4986;SDS011;12674;51.500;7.552;2023-06-14T00:26:24;27.65;;;5.88;;
4986;SDS011;12674;51.500;7.552;2023-06-14T00:28:27;5.90;;;5.30;;
4986;SDS011;12674;51.500;7.552;2023-06-14T00:30:30;7.53;;;5.22;;
4986;SDS011;12674;51.500;7.552;2023-06-14T00:32:33;10.25;;;5.28;;
4986;SDS011;12674;51.500;7.552;2023-06-14T00:34:36;6.40;;;5.10;;
4986;SDS011;12674;51.500;7.552;2023-06-14T00:36:43;11.82;;;5.15;;
4986;SDS011;12674;51.500;7.552;2023-06-14T00:38:48;9.82;;;5.75;;
4986;SDS011;12674;51.500;7.552;2023-06-14T00:40:51;13.95;;;4.95;;
4986;SDS011;12674;51.500;7.552;2023-06-14T00:42:54;8.95;;;5.20;;
4986;SDS011;12674;51.500;7.552;2023-06-14T00:44:57;8.63;;;5.32;;
4986;SDS011;12674;51.500;7.552;2023-06-14T00:47:00;15.02;;;4.68;;
4986;SDS011;12674;51.500;7.552;2023-06-14T00:49:03;10.40;;;5.28;;
4986;SDS011;12674;51.500;7.552;2023-06-14T00:51:07;6.65;;;4.65;;
4986;SDS011;12674;51.500;7.552;2023-06-14T00:53:13;6.82;;;4.72;;
4986;SDS011;12674;51.500;7.552;2023-06-14T00:55:16;6.00;;;4.57;;
4986;SDS011;12674;51.500;7.552;2023-06-14T00:57:19;11.90;;;4.30;;
4986;SDS011;12674;51.500;7.552;2023-06-14T00:59:23;10.63;;;5.38;;
4986;SDS011;12674;51.500;7.552;2023-06-14T01:01:26;8.45;;;4.68;;
4986;SDS011;12674;51.500;7.552;2023-06-14T01:03:30;9.85;;;4.65;;
4986;SDS011;12674;51.500;7.552;2023-06-14T01:05:34;8.35;;;4.93;;
4986;SDS011;12674;51.500;7.552;2023-06-14T01:07:40;6.68;;;4.80;;
4986;SDS011;12674;51.500;7.552;2023-06-14T01:09:57;6.70;;;4.40;;
4986;SDS011;12674;51.500;7.552;2023-06-14T01:12:07;9.15;;;5.70;;
4986;SDS011;12674;51.500;7.552;2023-06-14T01:14:14;8.80;;;5.10;;
4986;SDS011;12674;51.500;7.552;2023-06-14T01:16:21;7.30;;;5.25;;
4986;SDS011;12674;51.500;7.552;2023-06-14T01:18:24;8.63;;;4.60;;
4986;SDS011;12674;51.500;7.552;2023-06-14T01:20:29;9.13;;;5.05;;
4986;SDS011;12674;51.500;7.552;2023-06-14T01:22:34;8.60;;;5.63;;
4986;SDS011;12674;51.500;7.552;2023-06-14T01:24:38;10.25;;;4.45;;
4986;SDS011;12674;51.500;7.552;2023-06-14T01:26:46;12.35;;;4.72;;
4986;SDS011;12674;51.500;7.552;2023-06-14T01:28:53;7.70;;;4.75;;
4986;SDS011;12674;51.500;7.552;2023-06-14T01:31:00;9.75;;;4.40;;
4986;SDS011;12674;51.500;7.552;2023-06-14T01:33:07;9.38;;;4.40;;
4986;SDS011;12674;51.500;7.552;2023-06-14T01:35:10;10.35;;;4.40;;
4986;SDS011;12674;51.500;7.552;2023-06-14T01:37:13;12.18;;;4.45;;
4986;SDS011;12674;51.500;7.552;2023-06-14T01:39:16;11.55;;;4.53;;
4986;SDS011;12674;51.500;7.552;2023-06-14T01:41:21;7.55;;;4.40;;
4986;SDS011;12674;51.500;7.552;2023-06-14T01:43:26;9.15;;;5.20;;
4986;SDS011;12674;51.500;7.552;2023-06-14T01:45:31;11.38;;;4.78;;
4986;SDS011;12674;51.500;7.552;2023-06-14T01:47:34;6.88;;;4.30;;
4986;SDS011;12674;51.500;7.552;2023-06-14T01:49:38;8.52;;;4.78;;
4986;SDS011;12674;51.500;7.552;2023-06-14T01:51:42;7.78;;;4.70;;
4986;SDS011;12674;51.500;7.552;2023-06-14T01:53:45;11.98;;;4.45;;
4986;SDS011;12674;51.500;7.552;2023-06-14T01:55:50;7.65;;;3.65;;
4986;SDS011;12674;51.500;7.552;2023-06-14T01:57:57;6.85;;;4.43;;
4986;SDS011;12674;51.500;7.552;2023-06-14T02:00:00;11.88;;;4.65;;
4986;SDS011;12674;51.500;7.552;2023-06-14T02:02:13;6.10;;;4.18;;
4986;SDS011;12674;51.500;7.552;2023-06-14T02:04:16;17.88;;;4.80;;
4986;SDS011;12674;51.500;7.552;2023-06-14T02:06:21;11.10;;;4.97;;
4986;SDS011;12674;51.500;7.552;2023-06-14T02:08:24;10.48;;;4.97;;
4986;SDS011;12674;51.500;7.552;2023-06-14T02:10:27;10.25;;;4.13;;
4986;SDS011;12674;51.500;7.552;2023-06-14T02:12:30;5.72;;;4.32;;
4986;SDS011;12674;51.500;7.552;2023-06-14T02:14:34;7.70;;;3.95;;
4986;SDS011;12674;51.500;7.552;2023-06-14T02:16:37;8.55;;;4.28;;
4986;SDS011;12674;51.500;7.552;2023-06-14T02:18:42;7.10;;;3.85;;
4986;SDS011;12674;51.500;7.552;2023-06-14T02:20:45;4.88;;;3.92;;
4986;SDS011;12674;51.500;7.552;2023-06-14T02:22:48;6.32;;;3.78;;
4986;SDS011;12674;51.500;7.552;2023-06-14T02:24:51;9.27;;;4.18;;
4986;SDS011;12674;51.500;7.552;2023-06-14T02:27:03;7.88;;;4.00;;
4986;SDS011;12674;51.500;7.552;2023-06-14T02:29:06;17.33;;;4.28;;
4986;SDS011;12674;51.500;7.552;2023-06-14T02:31:12;8.88;;;3.50;;
4986;SDS011;12674;51.500;7.552;2023-06-14T02:33:16;12.80;;;4.55;;
4986;SDS011;12674;51.500;7.552;2023-06-14T02:35:19;4.93;;;3.40;;
4986;SDS011;12674;51.500;7.552;2023-06-14T02:37:25;10.77;;;3.70;;
4986;SDS011;12674;51.500;7.552;2023-06-14T02:39:29;6.18;;;3.95;;
4986;SDS011;12674;51.500;7.552;2023-06-14T02:41:32;6.30;;;3.55;;
4986;SDS011;12674;51.500;7.552;2023-06-14T02:43:34;7.53;;;3.47;;
4986;SDS011;12674;51.500;7.552;2023-06-14T02:45:40;7.07;;;3.05;;
4986;SDS011;12674;51.500;7.552;2023-06-14T02:47:44;13.57;;;3.78;;
4986;SDS011;12674;51.500;7.552;2023-06-14T02:49:48;7.15;;;3.60;;
4986;SDS011;12674;51.500;7.552;2023-06-14T02:51:50;8.15;;;3.78;;
4986;SDS011;12674;51.500;7.552;2023-06-14T02:53:53;17.40;;;3.92;;
4986;SDS011;12674;51.500;7.552;2023-06-14T02:55:56;6.78;;;3.55;;
4986;SDS011;12674;51.500;7.552;2023-06-14T02:58:00;6.85;;;3.42;;
4986;SDS011;12674;51.500;7.552;2023-06-14T03:00:03;5.63;;;3.03;;
4986;SDS011;12674;51.500;7.552;2023-06-14T03:02:11;8.70;;;3.30;;
4986;SDS011;12674;51.500;7.552;2023-06-14T03:04:16;6.43;;;4.15;;
4986;SDS011;12674;51.500;7.552;2023-06-14T03:06:20;11.38;;;3.70;;
4986;SDS011;12674;51.500;7.552;2023-06-14T03:08:27;10.30;;;3.60;;
4986;SDS011;12674;51.500;7.552;2023-06-14T03:10:35;10.38;;;3.40;;
4986;SDS011;12674;51.500;7.552;2023-06-14T03:12:38;8.45;;;3.63;;
4986;SDS011;12674;51.500;7.552;2023-06-14T03:14:43;14.57;;;4.38;;
4986;SDS011;12674;51.500;7.552;2023-06-14T03:16:50;5.00;;;3.40;;
4986;SDS011;12674;51.500;7.552;2023-06-14T03:18:58;5.65;;;3.85;;
4986;SDS011;12674;51.500;7.552;2023-06-14T03:21:06;4.55;;;3.40;;
4986;SDS011;12674;51.500;7.552;2023-06-14T03:23:13;8.93;;;3.72;;
4986;SDS011;12674;51.500;7.552;2023-06-14T03:25:16;8.75;;;3.45;;
4986;SDS011;12674;51.500;7.552;2023-06-14T03:27:22;4.97;;;2.90;;
4986;SDS011;12674;51.500;7.552;2023-06-14T03:29:25;8.00;;;3.22;;
4986;SDS011;12674;51.500;7.552;2023-06-14T03:31:29;7.07;;;3.95;;
4986;SDS011;12674;51.500;7.552;2023-06-14T03:33:36;6.93;;;3.33;;
4986;SDS011;12674;51.500;7.552;2023-06-14T03:35:39;7.13;;;3.10;;
4986;SDS011;12674;51.500;7.552;2023-06-14T03:37:45;8.80;;;3.28;;
4986;SDS011;12674;51.500;7.552;2023-06-14T03:39:48;8.57;;;3.78;;
4986;SDS011;12674;51.500;7.552;2023-06-14T03:41:57;7.30;;;3.20;;
4986;SDS011;12674;51.500;7.552;2023-06-14T03:44:00;8.35;;;3.30;;
4986;SDS011;12674;51.500;7.552;2023-06-14T03:46:04;22.75;;;3.85;;
4986;SDS011;12674;51.500;7.552;2023-06-14T03:48:08;5.05;;;2.83;;
4986;SDS011;12674;51.500;7.552;2023-06-14T03:50:11;7.40;;;3.72;;
4986;SDS011;12674;51.500;7.552;2023-06-14T03:52:15;5.25;;;3.00;;
4986;SDS011;12674;51.500;7.552;2023-06-14T03:54:21;6.30;;;3.15;;
4986;SDS011;12674;51.500;7.552;2023-06-14T03:56:45;10.25;;;3.35;;
4986;SDS011;12674;51.500;7.552;2023-06-14T03:58:48;20.15;;;3.55;;
4986;SDS011;12674;51.500;7.552;2023-06-14T04:00:53;7.68;;;3.45;;
4986;SDS011;12674;51.500;7.552;2023-06-14T04:02:56;6.70;;;3.20;;
4986;SDS011;12674;51.500;7.552;2023-06-14T04:04:59;6.05;;;3.78;;
4986;SDS011;12674;51.500;7.552;2023-06-14T04:07:05;26.02;;;3.47;;
4986;SDS011;12674;51.500;7.552;2023-06-14T04:09:10;16.00;;;3.40;;
4986;SDS011;12674;51.500;7.552;2023-06-14T04:11:16;5.82;;;3.30;;
4986;SDS011;12674;51.500;7.552;2023-06-14T04:13:19;6.90;;;4.03;;
4986;SDS011;12674;51.500;7.552;2023-06-14T04:15:22;18.25;;;3.40;;
4986;SDS011;12674;51.500;7.552;2023-06-14T04:17:28;9.10;;;4.00;;
4986;SDS011;12674;51.500;7.552;2023-06-14T04:19:32;9.00;;;3.65;;
4986;SDS011;12674;51.500;7.552;2023-06-14T04:21:35;18.67;;;4.60;;
4986;SDS011;12674;51.500;7.552;2023-06-14T04:23:39;10.98;;;4.28;;
4986;SDS011;12674;51.500;7.552;2023-06-14T04:25:47;6.68;;;3.90;;
4986;SDS011;12674;51.500;7.552;2023-06-14T04:27:53;7.00;;;3.65;;
4986;SDS011;12674;51.500;7.552;2023-06-14T04:29:56;13.00;;;3.90;;
4986;SDS011;12674;51.500;7.552;2023-06-14T04:32:07;7.00;;;3.70;;
4986;SDS011;12674;51.500;7.552;2023-06-14T04:34:12;7.65;;;3.70;;
4986;SDS011;12674;51.500;7.552;2023-06-14T04:36:24;5.38;;;3.78;;
4986;SDS011;12674;51.500;7.552;2023-06-14T04:38:29;17.63;;;3.92;;
4986;SDS011;12674;51.500;7.552;2023-06-14T04:40:36;15.90;;;3.50;;
4986;SDS011;12674;51.500;7.552;2023-06-14T04:42:45;9.88;;;3.65;;
4986;SDS011;12674;51.500;7.552;2023-06-14T04:44:51;11.60;;;3.70;;
4986;SDS011;12674;51.500;7.552;2023-06-14T04:46:57;8.27;;;4.30;;
4986;SDS011;12674;51.500;7.552;2023-06-14T04:49:01;12.73;;;3.35;;
4986;SDS011;12674;51.500;7.552;2023-06-14T04:51:04;7.20;;;3.45;;
4986;SDS011;12674;51.500;7.552;2023-06-14T04:53:07;8.68;;;3.88;;
4986;SDS011;12674;51.500;7.552;2023-06-14T04:55:10;11.93;;;3.53;;
4986;SDS011;12674;51.500;7.552;2023-06-14T04:57:13;12.45;;;4.05;;
4986;SDS011;12674;51.500;7.552;2023-06-14T04:59:20;7.70;;;3.05;;
4986;SDS011;12674;51.500;7.552;2023-06-14T05:01:26;16.70;;;4.25;;
4986;SDS011;12674;51.500;7.552;2023-06-14T05:03:29;9.60;;;3.72;;
4986;SDS011;12674;51.500;7.552;2023-06-14T05:05:33;9.77;;;3.53;;
4986;SDS011;12674;51.500;7.552;2023-06-14T05:07:36;8.00;;;3.75;;
4986;SDS011;12674;51.500;7.552;2023-06-14T05:09:44;5.22;;;2.80;;
4986;SDS011;12674;51.500;7.552;2023-06-14T05:11:47;7.63;;;3.28;;
4986;SDS011;12674;51.500;7.552;2023-06-14T05:13:51;8.18;;;3.60;;
4986;SDS011;12674;51.500;7.552;2023-06-14T05:15:55;5.95;;;3.60;;
4986;SDS011;12674;51.500;7.552;2023-06-14T05:18:00;13.43;;;3.33;;
4986;SDS011;12674;51.500;7.552;2023-06-14T05:20:04;9.07;;;2.72;;
4986;SDS011;12674;51.500;7.552;2023-06-14T05:22:09;20.30;;;3.25;;
4986;SDS011;12674;51.500;7.552;2023-06-14T05:24:12;12.18;;;3.03;;
4986;SDS011;12674;51.500;7.552;2023-06-14T05:26:15;7.50;;;3.10;;
4986;SDS011;12674;51.500;7.552;2023-06-14T05:28:18;8.32;;;3.13;;
4986;SDS011;12674;51.500;7.552;2023-06-14T05:30:22;18.80;;;3.58;;
4986;SDS011;12674;51.500;7.552;2023-06-14T05:32:25;17.58;;;3.83;;
4986;SDS011;12674;51.500;7.552;2023-06-14T05:34:29;10.30;;;3.15;;
4986;SDS011;12674;51.500;7.552;2023-06-14T05:36:32;10.75;;;2.80;;
4986;SDS011;12674;51.500;7.552;2023-06-14T05:38:35;8.07;;;3.53;;
4986;SDS011;12674;51.500;7.552;2023-06-14T05:40:38;6.97;;;2.78;;
4986;SDS011;12674;51.500;7.552;2023-06-14T05:42:41;13.25;;;3.03;;
4986;SDS011;12674;51.500;7.552;2023-06-14T05:44:44;17.58;;;2.92;;
4986;SDS011;12674;51.500;7.552;2023-06-14T05:46:47;12.80;;;2.70;;
4986;SDS011;12674;51.500;7.552;2023-06-14T05:48:50;8.57;;;2.60;;
4986;SDS011;12674;51.500;7.552;2023-06-14T05:50:55;10.48;;;2.83;;
4986;SDS011;12674;51.500;7.552;2023-06-14T05:52:58;7.68;;;2.72;;
4986;SDS011;12674;51.500;7.552;2023-06-14T05:55:01;10.23;;;2.72;;
4986;SDS011;12674;51.500;7.552;2023-06-14T05:57:05;5.00;;;2.83;;
4986;SDS011;12674;51.500;7.552;2023-06-14T05:59:08;13.05;;;2.63;;
4986;SDS011;12674;51.500;7.552;2023-06-14T06:01:12;22.27;;;4.35;;
4986;SDS011;12674;51.500;7.552;2023-06-14T06:03:15;6.82;;;2.85;;
4986;SDS011;12674;51.500;7.552;2023-06-14T06:05:18;6.80;;;2.80;;
4986;SDS011;12674;51.500;7.552;2023-06-14T06:07:23;15.30;;;3.28;;
4986;SDS011;12674;51.500;7.552;2023-06-14T06:09:27;9.35;;;2.88;;
4986;SDS011;12674;51.500;7.552;2023-06-14T06:11:30;10.68;;;3.10;;
4986;SDS011;12674;51.500;7.552;2023-06-14T06:13:52;3.05;;;2.33;;
4986;SDS011;12674;51.500;7.552;2023-06-14T06:15:55;13.90;;;2.90;;
4986;SDS011;12674;51.500;7.552;2023-06-14T06:17:58;8.70;;;3.22;;
4986;SDS011;12674;51.500;7.552;2023-06-14T06:20:04;15.30;;;5.28;;
4986;SDS011;12674;51.500;7.552;2023-06-14T06:22:10;9.00;;;3.30;;
4986;SDS011;12674;51.500;7.552;2023-06-14T06:24:15;17.25;;;3.60;;
4986;SDS011;12674;51.500;7.552;2023-06-14T06:26:18;5.03;;;3.13;;
4986;SDS011;12674;51.500;7.552;2023-06-14T06:28:21;9.98;;;2.90;;
4986;SDS011;12674;51.500;7.552;2023-06-14T06:30:25;12.02;;;2.50;;
4986;SDS011;12674;51.500;7.552;2023-06-14T06:32:28;7.28;;;3.28;;
4986;SDS011;12674;51.500;7.552;2023-06-14T06:34:31;11.13;;;2.70;;
4986;SDS011;12674;51.500;7.552;2023-06-14T06:36:34;7.28;;;2.80;;
4986;SDS011;12674;51.500;7.552;2023-06-14T06:38:38;10.80;;;3.00;;
4986;SDS011;12674;51.500;7.552;2023-06-14T06:40:44;5.18;;;2.65;;
4986;SDS011;12674;51.500;7.552;2023-06-14T06:43:05;4.47;;;3.08;;
4986;SDS011;12674;51.500;7.552;2023-06-14T06:45:15;10.10;;;2.50;;
4986;SDS011;12674;51.500;7.552;2023-06-14T06:47:19;8.02;;;2.90;;
4986;SDS011;12674;51.500;7.552;2023-06-14T06:49:22;8.68;;;3.08;;
4986;SDS011;12674;51.500;7.552;2023-06-14T06:51:25;7.25;;;2.50;;
4986;SDS011;12674;51.500;7.552;2023-06-14T06:53:32;5.00;;;2.65;;
4986;SDS011;12674;51.500;7.552;2023-06-14T06:55:48;7.65;;;2.85;;
4986;SDS011;12674;51.500;7.552;2023-06-14T06:57:51;6.68;;;2.83;;
4986;SDS011;12674;51.500;7.552;2023-06-14T06:59:55;5.15;;;2.72;;
4986;SDS011;12674;51.500;7.552;2023-06-14T07:02:00;4.30;;;2.97;;
4986;SDS011;12674;51.500;7.552;2023-06-14T07:04:03;6.78;;;2.60;;
4986;SDS011;12674;51.500;7.552;2023-06-14T07:06:07;10.40;;;2.83;;
4986;SDS011;12674;51.500;7.552;2023-06-14T07:08:10;14.68;;;2.50;;
4986;SDS011;12674;51.500;7.552;2023-06-14T07:10:13;6.47;;;3.13;;
4986;SDS011;12674;51.500;7.552;2023-06-14T07:12:18;4.75;;;2.35;;
4986;SDS011;12674;51.500;7.552;2023-06-14T07:14:21;8.88;;;2.72;;
4986;SDS011;12674;51.500;7.552;2023-06-14T07:16:25;28.60;;;3.10;;
4986;SDS011;12674;51.500;7.552;2023-06-14T07:18:29;3.97;;;2.00;;
4986;SDS011;12674;51.500;7.552;2023-06-14T07:20:32;7.60;;;2.92;;
4986;SDS011;12674;51.500;7.552;2023-06-14T07:22:35;6.38;;;2.47;;
4986;SDS011;12674;51.500;7.552;2023-06-14T07:24:38;6.40;;;2.42;;
4986;SDS011;12674;51.500;7.552;2023-06-14T07:26:44;10.80;;;3.20;;
4986;SDS011;12674;51.500;7.552;2023-06-14T07:28:50;9.15;;;2.08;;
4986;SDS011;12674;51.500;7.552;2023-06-14T07:30:54;6.68;;;1.95;;
4986;SDS011;12674;51.500;7.552;2023-06-14T07:32:57;7.85;;;2.20;;
4986;SDS011;12674;51.500;7.552;2023-06-14T07:35:00;4.35;;;1.90;;
4986;SDS011;12674;51.500;7.552;2023-06-14T07:37:04;13.68;;;2.28;;
4986;SDS011;12674;51.500;7.552;2023-06-14T07:39:08;7.72;;;2.72;;
4986;SDS011;12674;51.500;7.552;2023-06-14T07:41:11;3.63;;;2.08;;
4986;SDS011;12674;51.500;7.552;2023-06-14T07:43:14;4.05;;;1.90;;
4986;SDS011;12674;51.500;7.552;2023-06-14T07:45:19;4.88;;;1.95;;
4986;SDS011;12674;51.500;7.552;2023-06-14T07:47:22;7.65;;;2.08;;
4986;SDS011;12674;51.500;7.552;2023-06-14T07:49:27;2.88;;;1.63;;
4986;SDS011;12674;51.500;7.552;2023-06-14T07:51:30;2.95;;;1.83;;
4986;SDS011;12674;51.500;7.552;2023-06-14T07:53:33;4.22;;;1.95;;
4986;SDS011;12674;51.500;7.552;2023-06-14T07:55:37;6.18;;;2.72;;
4986;SDS011;12674;51.500;7.552;2023-06-14T07:57:55;4.43;;;2.22;;
4986;SDS011;12674;51.500;7.552;2023-06-14T07:59:58;3.08;;;1.98;;
4986;SDS011;12674;51.500;7.552;2023-06-14T08:02:03;4.90;;;1.73;;
4986;SDS011;12674;51.500;7.552;2023-06-14T08:04:06;3.25;;;1.27;;
4986;SDS011;12674;51.500;7.552;2023-06-14T08:06:09;9.02;;;1.67;;
4986;SDS011;12674;51.500;7.552;2023-06-14T08:08:13;11.75;;;3.00;;
4986;SDS011;12674;51.500;7.552;2023-06-14T08:10:18;8.57;;;1.40;;
4986;SDS011;12674;51.500;7.552;2023-06-14T08:12:21;3.28;;;1.30;;
4986;SDS011;12674;51.500;7.552;2023-06-14T08:14:25;4.93;;;1.30;;
4986;SDS011;12674;51.500;7.552;2023-06-14T08:16:28;5.10;;;1.27;;
4986;SDS011;12674;51.500;7.552;2023-06-14T08:18:33;2.00;;;1.30;;
4986;SDS011;12674;51.500;7.552;2023-06-14T08:20:36;8.75;;;1.25;;
4986;SDS011;12674;51.500;7.552;2023-06-14T08:22:39;1.48;;;1.25;;
4986;SDS011;12674;51.500;7.552;2023-06-14T08:24:44;1.45;;;1.35;;
4986;SDS011;12674;51.500;7.552;2023-06-14T08:26:47;2.35;;;1.38;;
4986;SDS011;12674;51.500;7.552;2023-06-14T08:28:50;1.35;;;1.20;;
4986;SDS011;12674;51.500;7.552;2023-06-14T08:30:53;2.88;;;1.23;;
4986;SDS011;12674;51.500;7.552;2023-06-14T08:32:57;7.93;;;1.30;;
4986;SDS011;12674;51.500;7.552;2023-06-14T08:35:20;1.60;;;1.20;;
4986;SDS011;12674;51.500;7.552;2023-06-14T08:37:24;6.28;;;1.52;;
4986;SDS011;12674;51.500;7.552;2023-06-14T08:39:28;2.45;;;1.52;;
4986;SDS011;12674;51.500;7.552;2023-06-14T08:41:31;6.18;;;1.45;;
4986;SDS011;12674;51.500;7.552;2023-06-14T08:43:35;3.80;;;1.15;;
4986;SDS011;12674;51.500;7.552;2023-06-14T08:45:38;3.25;;;1.30;;
4986;SDS011;12674;51.500;7.552;2023-06-14T08:47:42;1.73;;;1.13;;
4986;SDS011;12674;51.500;7.552;2023-06-14T08:49:46;3.22;;;1.20;;
4986;SDS011;12674;51.500;7.552;2023-06-14T08:51:51;2.50;;;1.20;;
4986;SDS011;12674;51.500;7.552;2023-06-14T08:53:59;3.30;;;1.02;;
4986;SDS011;12674;51.500;7.552;2023-06-14T08:56:04;7.28;;;1.15;;
4986;SDS011;12674;51.500;7.552;2023-06-14T08:58:09;3.78;;;1.33;;
4986;SDS011;12674;51.500;7.552;2023-06-14T09:00:16;3.17;;;1.10;;
4986;SDS011;12674;51.500;7.552;2023-06-14T09:02:20;2.17;;;1.10;;
4986;SDS011;12674;51.500;7.552;2023-06-14T09:04:24;2.03;;;1.25;;
4986;SDS011;12674;51.500;7.552;2023-06-14T09:06:33;2.05;;;1.30;;
4986;SDS011;12674;51.500;7.552;2023-06-14T09:08:40;3.72;;;1.30;;
4986;SDS011;12674;51.500;7.552;2023-06-14T09:10:45;4.97;;;1.77;;
4986;SDS011;12674;51.500;7.552;2023-06-14T09:12:48;1.70;;;1.33;;
4986;SDS011;12674;51.500;7.552;2023-06-14T09:14:51;11.35;;;1.83;;
4986;SDS011;12674;51.500;7.552;2023-06-14T09:16:55;8.85;;;1.40;;
4986;SDS011;12674;51.500;7.552;2023-06-14T09:18:58;2.22;;;1.70;;
4986;SDS011;12674;51.500;7.552;2023-06-14T09:21:01;2.20;;;1.52;;
4986;SDS011;12674;51.500;7.552;2023-06-14T09:23:04;5.75;;;1.70;;
4986;SDS011;12674;51.500;7.552;2023-06-14T09:25:11;7.53;;;1.60;;
4986;SDS011;12674;51.500;7.552;2023-06-14T09:27:34;7.03;;;1.60;;
4986;SDS011;12674;51.500;7.552;2023-06-14T09:29:37;9.50;;;1.40;;
4986;SDS011;12674;51.500;7.552;2023-06-14T09:31:41;2.67;;;1.38;;
4986;SDS011;12674;51.500;7.552;2023-06-14T09:33:45;13.27;;;1.80;;
4986;SDS011;12674;51.500;7.552;2023-06-14T09:35:53;3.97;;;1.80;;
4986;SDS011;12674;51.500;7.552;2023-06-14T09:37:56;3.45;;;1.63;;
4986;SDS011;12674;51.500;7.552;2023-06-14T09:40:00;9.68;;;1.70;;
4986;SDS011;12674;51.500;7.552;2023-06-14T09:42:05;5.72;;;1.30;;
4986;SDS011;12674;51.500;7.552;2023-06-14T09:44:20;2.05;;;1.10;;
4986;SDS011;12674;51.500;7.552;2023-06-14T09:46:26;2.30;;;1.40;;
4986;SDS011;12674;51.500;7.552;2023-06-14T09:48:31;2.75;;;1.35;;
4986;SDS011;12674;51.500;7.552;2023-06-14T09:50:34;3.20;;;1.52;;
4986;SDS011;12674;51.500;7.552;2023-06-14T09:52:38;2.72;;;1.45;;
4986;SDS011;12674;51.500;7.552;2023-06-14T09:54:44;2.83;;;1.30;;
4986;SDS011;12674;51.500;7.552;2023-06-14T09:56:50;7.43;;;1.30;;
4986;SDS011;12674;51.500;7.552;2023-06-14T09:58:56;5.90;;;1.30;;
4986;SDS011;12674;51.500;7.552;2023-06-14T10:01:09;5.88;;;1.45;;
4986;SDS011;12674;51.500;7.552;2023-06-14T10:03:18;4.93;;;1.13;;
4986;SDS011;12674;51.500;7.552;2023-06-14T10:05:24;2.92;;;1.40;;
4986;SDS011;12674;51.500;7.552;2023-06-14T10:11:04;4.28;;;1.15;;
4986;SDS011;12674;51.500;7.552;2023-06-14T10:13:07;1.08;;;0.98;;
4986;SDS011;12674;51.500;7.552;2023-06-14T10:15:15;2.22;;;1.30;;
4986;SDS011;12674;51.500;7.552;2023-06-14T10:17:26;4.50;;;1.60;;
4986;SDS011;12674;51.500;7.552;2023-06-14T10:19:34;1.20;;;0.98;;
4986;SDS011;12674;51.500;7.552;2023-06-14T10:21:43;1.45;;;1.10;;
4986;SDS011;12674;51.500;7.552;2023-06-14T10:23:54;9.65;;;0.90;;
4986;SDS011;12674;51.500;7.552;2023-06-14T10:26:02;2.45;;;1.25;;
4986;SDS011;12674;51.500;7.552;2023-06-14T10:28:14;1.45;;;1.35;;
4986;SDS011;12674;51.500;7.552;2023-06-14T10:30:19;7.55;;;1.20;;
4986;SDS011;12674;51.500;7.552;2023-06-14T10:35:15;2.65;;;1.52;;
4986;SDS011;12674;51.500;7.552;2023-06-14T10:37:19;5.18;;;1.63;;
4986;SDS011;12674;51.500;7.552;2023-06-14T10:39:23;4.00;;;1.17;;
4986;SDS011;12674;51.500;7.552;2023-06-14T10:41:27;2.17;;;1.27;;
4986;SDS011;12674;51.500;7.552;2023-06-14T10:43:31;3.72;;;1.23;;
4986;SDS011;12674;51.500;7.552;2023-06-14T10:45:36;7.32;;;1.30;;
4986;SDS011;12674;51.500;7.552;2023-06-14T10:47:40;18.70;;;3.78;;
4986;SDS011;12674;51.500;7.552;2023-06-14T10:49:43;12.80;;;1.70;;
4986;SDS011;12674;51.500;7.552;2023-06-14T10:51:49;2.53;;;1.40;;
4986;SDS011;12674;51.500;7.552;2023-06-14T10:53:53;7.20;;;1.40;;
4986;SDS011;12674;51.500;7.552;2023-06-14T10:56:05;2.67;;;1.50;;
4986;SDS011;12674;51.500;7.552;2023-06-14T10:58:10;9.32;;;1.55;;
4986;SDS011;12674;51.500;7.552;2023-06-14T11:00:13;5.97;;;1.73;;
4986;SDS011;12674;51.500;7.552;2023-06-14T11:05:09;2.33;;;1.20;;
4986;SDS011;12674;51.500;7.552;2023-06-14T11:07:35;3.15;;;1.65;;
4986;SDS011;12674;51.500;7.552;2023-06-14T11:10:03;3.45;;;1.52;;
4986;SDS011;12674;51.500;7.552;2023-06-14T11:12:12;8.25;;;1.83;;
4986;SDS011;12674;51.500;7.552;2023-06-14T11:14:16;5.80;;;2.20;;
4986;SDS011;12674;51.500;7.552;2023-06-14T11:16:20;9.15;;;2.15;;
4986;SDS011;12674;51.500;7.552;2023-06-14T11:18:23;2.65;;;1.52;;
4986;SDS011;12674;51.500;7.552;2023-06-14T11:20:32;3.03;;;1.80;;
4986;SDS011;12674;51.500;7.552;2023-06-14T11:22:40;4.30;;;1.73;;
4986;SDS011;12674;51.500;7.552;2023-06-14T11:24:44;3.88;;;1.77;;
4986;SDS011;12674;51.500;7.552;2023-06-14T11:26:49;5.60;;;1.27;;
4986;SDS011;12674;51.500;7.552;2023-06-14T11:28:54;10.95;;;1.30;;
4986;SDS011;12674;51.500;7.552;2023-06-14T11:31:01;4.50;;;1.60;;
4986;SDS011;12674;51.500;7.552;2023-06-14T11:33:09;1.77;;;1.35;;
4986;SDS011;12674;51.500;7.552;2023-06-14T11:35:13;3.58;;;1.60;;
4986;SDS011;12674;51.500;7.552;2023-06-14T11:37:21;2.05;;;1.50;;
4986;SDS011;12674;51.500;7.552;2023-06-14T11:39:27;2.72;;;1.52;;
4986;SDS011;12674;51.500;7.552;2023-06-14T11:41:33;11.38;;;1.83;;
4986;SDS011;12674;51.500;7.552;2023-06-14T11:43:39;1.98;;;1.52;;
4986;SDS011;12674;51.500;7.552;2023-06-14T11:45:42;2.35;;;1.10;;
4986;SDS011;12674;51.500;7.552;2023-06-14T11:48:01;2.25;;;1.70;;
4986;SDS011;12674;51.500;7.552;2023-06-14T11:50:06;3.28;;;1.80;;
4986;SDS011;12674;51.500;7.552;2023-06-14T11:52:10;3.83;;;1.55;;
4986;SDS011;12674;51.500;7.552;2023-06-14T11:54:15;8.23;;;1.73;;
4986;SDS011;12674;51.500;7.552;2023-06-14T11:56:19;6.22;;;1.90;;
4986;SDS011;12674;51.500;7.552;2023-06-14T11:58:22;2.92;;;1.75;;
4986;SDS011;12674;51.500;7.552;2023-06-14T12:00:26;2.15;;;1.80;;
4986;SDS011;12674;51.500;7.552;2023-06-14T12:02:30;5.18;;;1.95;;
4986;SDS011;12674;51.500;7.552;2023-06-14T12:04:34;1.70;;;1.60;;
4986;SDS011;12674;51.500;7.552;2023-06-14T12:06:37;2.55;;;1.85;;
4986;SDS011;12674;51.500;7.552;2023-06-14T12:08:42;3.67;;;1.88;;
4986;SDS011;12674;51.500;7.552;2023-06-14T12:10:51;5.00;;;1.70;;
4986;SDS011;12674;51.500;7.552;2023-06-14T12:12:56;5.20;;;1.77;;
4986;SDS011;12674;51.500;7.552;2023-06-14T12:14:59;7.57;;;1.77;;
4986;SDS011;12674;51.500;7.552;2023-06-14T12:17:06;1.40;;;1.30;;
4986;SDS011;12674;51.500;7.552;2023-06-14T12:19:17;9.32;;;1.80;;
4986;SDS011;12674;51.500;7.552;2023-06-14T12:21:34;5.03;;;2.00;;
4986;SDS011;12674;51.500;7.552;2023-06-14T12:23:43;5.07;;;1.70;;
4986;SDS011;12674;51.500;7.552;2023-06-14T12:25:48;5.47;;;1.70;;
4986;SDS011;12674;51.500;7.552;2023-06-14T12:27:53;2.08;;;1.50;;
4986;SDS011;12674;51.500;7.552;2023-06-14T12:30:00;2.22;;;1.73;;
4986;SDS011;12674;51.500;7.552;2023-06-14T12:32:04;2.50;;;1.55;;
4986;SDS011;12674;51.500;7.552;2023-06-14T12:34:08;2.08;;;1.45;;
4986;SDS011;12674;51.500;7.552;2023-06-14T12:36:11;7.25;;;1.67;;
4986;SDS011;12674;51.500;7.552;2023-06-14T12:38:16;4.07;;;1.70;;
4986;SDS011;12674;51.500;7.552;2023-06-14T12:40:21;2.75;;;1.60;;
4986;SDS011;12674;51.500;7.552;2023-06-14T12:42:27;8.25;;;1.88;;
4986;SDS011;12674;51.500;7.552;2023-06-14T12:44:30;2.67;;;1.48;;
4986;SDS011;12674;51.500;7.552;2023-06-14T12:46:36;2.25;;;1.50;;
4986;SDS011;12674;51.500;7.552;2023-06-14T12:48:41;3.22;;;1.80;;
4986;SDS011;12674;51.500;7.552;2023-06-14T12:50:46;4.40;;;1.63;;
4986;SDS011;12674;51.500;7.552;2023-06-14T12:52:49;5.15;;;1.80;;